CUM weather

Cumaná (Antonio José de Sucre) Airport
Sucre, Venezuela

Public forecast

Using degrees Celsius for public forecast. Weather courtesy of forecast.io.

Current aviation weather report (METAR) for Cumaná (Antonio José de Sucre) Airport

Report is more than 6 hours old.

Retrieved 2019/06/24 18:04 UTC (4 months ago):

SVCU 241804Z 10025KT 9999 CB/NE

Closest aviation forecast (TAF) to Cumaná (Antonio José de Sucre) Airport

Closest forecast is Del Caribe Santiago Mariño International Airport, 29.4 nm (54.4 km) NNE. Retrieved 2019/10/14 18:09 UTC (4 hours ago):

TAF SVMG 142200Z 1418/1518 07003KT 9999 FEW010 TX32/18Z TN24/08Z BECMG 1418/1422 09012KT SCT010